Alat, Azerbaijan

12:49 AM AZT on August 28, 2016 (GMT +0400)
Bina | | Change Station

Elev 0 ft 40.45 °N, 50.07 °E | Updated 19 minutes ago

Mostly Cloudy
Mostly Cloudy
79 °F
Feels Like 79 °F
N
9
Wind Variable Wind from NW

Today
High -- | Low -- °F
--% Chance of Precip.
Yesterday
High -- | Low -- °F
Precip. -- in
Pressure 30.01 in
Visibility 6.2 miles
Clouds Few 6000 ft
Mostly Cloudy 10000 ft
Dew Point 73 °F
Humidity 83%
Rainfall 0.00 in
Snow Depth Not available.
6:06 AM 7:19 PM
Waning Crescent, 21% visible
METAR UBBB 272030Z 31008KT 9999 FEW060CB BKN100 26/23 Q1016 R88/CLRD// NOSIG
Pressure 30.01 in
Visibility 6.2 miles
Clouds Few 6000 ft
Mostly Cloudy 10000 ft
Dew Point 73 °F
Humidity 83%
Rainfall 0.00 in
Snow Depth Not available.
6:06 AM 7:19 PM
Waning Crescent, 21% visible
METAR UBBB 272030Z 31008KT 9999 FEW060CB BKN100 26/23 Q1016 R88/CLRD// NOSIG

10-Day Weather Forecast

No radar image for this location.
×

Almanac

Astronomy

Aug. 28, 2016 Rise Set
Actual Time
Civil Twilight
Nautical Twilight
Astronomical Twilight
Moon
Length of Visible Light
Length of Day
Tomorrow will be .
, % of the Moon is Illuminated

Today's Extremes

Country Highs Country Lows

Community

WunderPhotos

Upload Photos

1,935,438 photos uploaded!

WunderBlog® & News

Nearby

Air Quality

  Air Quality AQ Index Pollutant
Not available.

Snow Depth

Station Depth Elevation

Earthquake Activity

City Distance Mag. Time & Date
Minimum magnitude displayed is 2.5.

Coastal Water Temperatures

Place Temperature

Stations

Nearby Weather Stations

Station Location Temp. Windchill Dew Point Humidity Wind Precip. Elev Updated Type